Time;durP1;ratioP1;P1;durP2;ratioP2;P2;SDS_P1;SDS_P2;PMS_P1;PMS_P2;Temp;Humidity;BMP_temperature;BMP_pressure;BME280_temperature;BME280_humidity;BME280_pressure;Samples;Min_cycle;Max_cycle;Signal;HPM_P1;HPM_P2
2021/11/05 00:02:08;;;;;;;14.90;3.00;;;;;20.50;100108.00;;;;5109384;28;20040;-78
2021/11/05 00:04:37;;;;;;;4.97;2.28;;;;;20.50;100104.00;;;;5110629;28;20168;-78
2021/11/05 00:07:07;;;;;;;11.88;2.75;;;;;20.50;100097.00;;;;5103437;28;20055;-78
2021/11/05 00:09:37;;;;;;;14.32;2.97;;;;;20.50;100109.00;;;;5075257;28;20923;-78
2021/11/05 00:12:08;;;;;;;10.18;2.67;;;;;20.50;100120.00;;;;5089928;28;20068;-78
2021/11/05 00:14:38;;;;;;;11.27;2.70;;;;;20.40;100104.00;;;;5080230;28;20043;-79
2021/11/05 00:17:10;;;;;;;9.45;2.50;;;;;20.40;100122.00;;;;5109684;28;20051;-78
2021/11/05 00:19:40;;;;;;;12.15;2.53;;;;;20.30;100121.00;;;;5109469;28;20043;-78
2021/11/05 00:22:09;;;;;;;11.60;2.72;;;;;20.30;100119.00;;;;5109947;28;20052;-79
2021/11/05 00:24:39;;;;;;;15.80;2.80;;;;;20.20;100118.00;;;;5110702;28;20124;-78
2021/11/05 00:27:08;;;;;;;12.18;2.30;;;;;20.20;100127.00;;;;5110058;28;20047;-78
2021/11/05 00:29:38;;;;;;;7.32;2.60;;;;;20.20;100134.00;;;;5091976;28;20439;-79
2021/11/05 00:32:08;;;;;;;12.73;2.38;;;;;20.20;100116.00;;;;5110701;28;20052;-79
2021/11/05 00:34:38;;;;;;;12.90;2.58;;;;;20.10;100129.00;;;;5110074;28;20144;-80
2021/11/05 00:37:07;;;;;;;10.52;3.03;;;;;20.10;100126.00;;;;5110295;28;20047;-79
2021/11/05 00:39:37;;;;;;;14.32;3.15;;;;;20.30;100122.00;;;;5109790;28;20479;-79
2021/11/05 00:42:08;;;;;;;17.88;3.33;;;;;20.30;100133.00;;;;5103182;28;20044;-79
2021/11/05 00:44:38;;;;;;;7.03;2.78;;;;;20.20;100131.00;;;;5097773;28;20097;-79
2021/11/05 00:47:10;;;;;;;9.52;2.50;;;;;20.20;100127.00;;;;5098603;28;20498;-79
2021/11/05 00:49:40;;;;;;;12.13;2.97;;;;;20.10;100144.00;;;;5099889;28;20105;-79
2021/11/05 00:52:10;;;;;;;11.70;2.72;;;;;20.10;100150.00;;;;5099370;28;20570;-78
2021/11/05 00:54:39;;;;;;;18.83;3.05;;;;;20.10;100132.00;;;;5098145;28;20082;-78
2021/11/05 00:57:09;;;;;;;9.13;2.55;;;;;20.00;100146.00;;;;5095934;28;20048;-79
2021/11/05 00:59:39;;;;;;;10.63;2.60;;;;;19.90;100137.00;;;;5089000;28;20166;-78
2021/11/05 01:02:09;;;;;;;9.85;3.17;;;;;19.80;100152.00;;;;5088641;28;20402;-78
2021/11/05 01:04:39;;;;;;;12.05;3.10;;;;;19.80;100140.00;;;;5070180;28;20562;-78
2021/11/05 01:07:09;;;;;;;9.88;2.63;;;;;19.80;100140.00;;;;5099691;28;20032;-78
2021/11/05 01:09:39;;;;;;;6.80;2.58;;;;;19.80;100142.00;;;;5097754;28;20093;-78
2021/11/05 01:12:09;;;;;;;9.80;2.60;;;;;19.80;100140.00;;;;5095768;28;20028;-78
2021/11/05 01:14:39;;;;;;;6.75;2.40;;;;;19.70;100153.00;;;;5098183;28;20410;-78
2021/11/05 01:17:10;;;;;;;14.20;2.85;;;;;19.70;100135.00;;;;5099716;28;20047;-78
2021/11/05 01:19:40;;;;;;;9.20;3.28;;;;;19.70;100144.00;;;;5091159;28;20060;-78
2021/11/05 01:22:11;;;;;;;6.65;2.35;;;;;19.70;100142.00;;;;5088394;28;20040;-78
2021/11/05 01:24:41;;;;;;;9.20;2.83;;;;;19.70;100150.00;;;;5088581;28;20056;-78
2021/11/05 01:27:11;;;;;;;9.15;2.65;;;;;19.70;100138.00;;;;5088448;28;20093;-78
2021/11/05 01:29:41;;;;;;;9.45;3.17;;;;;19.80;100138.00;;;;5088825;28;20043;-78
2021/11/05 01:32:12;;;;;;;13.40;3.63;;;;;19.70;100126.00;;;;5088686;28;20043;-78
2021/11/05 01:34:41;;;;;;;7.38;2.70;;;;;19.70;100133.00;;;;5088143;28;20044;-78
2021/11/05 01:37:11;;;;;;;8.73;2.90;;;;;19.70;100129.00;;;;5088190;28;20051;-79
2021/11/05 01:39:41;;;;;;;11.27;2.83;;;;;19.70;100132.00;;;;5088632;28;20051;-78
2021/11/05 01:42:10;;;;;;;9.00;3.15;;;;;19.70;100129.00;;;;5089329;28;20044;-78
2021/11/05 01:44:41;;;;;;;15.20;3.80;;;;;19.70;100135.00;;;;5088337;28;20127;-79
2021/11/05 01:47:11;;;;;;;8.80;2.72;;;;;19.60;100126.00;;;;5088914;28;20040;-79
2021/11/05 01:49:41;;;;;;;11.43;3.00;;;;;19.70;100133.00;;;;5088340;28;20793;-78
2021/11/05 01:52:11;;;;;;;10.32;2.90;;;;;19.60;100130.00;;;;5088130;28;20433;-79
2021/11/05 01:54:42;;;;;;;10.25;3.20;;;;;19.60;100135.00;;;;5088282;28;20090;-78
2021/11/05 01:57:11;;;;;;;10.55;2.78;;;;;19.60;100130.00;;;;5088331;28;20491;-78
2021/11/05 01:59:41;;;;;;;7.05;2.78;;;;;19.60;100128.00;;;;5088480;28;20052;-78
2021/11/05 02:02:10;;;;;;;14.43;3.17;;;;;19.60;100129.00;;;;5087650;28;20044;-78
2021/11/05 02:04:41;;;;;;;13.33;3.37;;;;;19.50;100126.00;;;;5071150;28;20461;-78
2021/11/05 02:07:11;;;;;;;13.57;3.10;;;;;19.50;100115.00;;;;5087946;28;20313;-78
2021/11/05 02:09:43;;;;;;;11.48;3.40;;;;;19.40;100122.00;;;;5088352;28;20058;-77
2021/11/05 02:12:13;;;;;;;15.05;3.80;;;;;19.50;100108.00;;;;5087496;28;20097;-77
2021/11/05 02:14:46;;;;;;;12.35;3.13;;;;;19.40;100121.00;;;;5088195;28;20072;-77
2021/11/05 02:17:16;;;;;;;12.27;3.00;;;;;19.40;100119.00;;;;5087806;28;20097;-78
2021/11/05 02:19:46;;;;;;;7.45;2.65;;;;;19.40;100119.00;;;;5087676;28;20056;-78
2021/11/05 02:22:16;;;;;;;13.15;3.17;;;;;19.40;100114.00;;;;5087702;28;20044;-78
2021/11/05 02:24:46;;;;;;;9.95;3.58;;;;;19.40;100093.00;;;;5087230;28;20051;-77
2021/11/05 02:27:16;;;;;;;11.13;3.40;;;;;19.40;100098.00;;;;5087656;28;20071;-77
2021/11/05 02:29:45;;;;;;;9.57;3.25;;;;;19.40;100103.00;;;;5087920;28;20052;-77
2021/11/05 02:32:15;;;;;;;11.68;3.08;;;;;19.30;100107.00;;;;5088063;28;20048;-77
2021/11/05 02:34:46;;;;;;;7.10;3.00;;;;;19.30;100096.00;;;;5087483;28;20514;-77
2021/11/05 02:37:26;;;;;;;10.23;3.67;;;;;19.30;100105.00;;;;5087150;28;20056;-77
2021/11/05 02:39:56;;;;;;;18.77;3.60;;;;;19.20;100085.00;;;;5087252;28;20047;-78
2021/11/05 02:42:26;;;;;;;8.15;3.13;;;;;19.20;100092.00;;;;5087511;28;20465;-77
2021/11/05 02:44:56;;;;;;;9.73;3.25;;;;;19.20;100097.00;;;;5087380;28;20044;-77
2021/11/05 02:47:27;;;;;;;8.85;2.92;;;;;19.20;100095.00;;;;5087423;28;20047;-77
2021/11/05 02:50:11;;;;;;;10.05;3.47;;;;;19.20;100101.00;;;;5087774;28;20419;-77
2021/11/05 02:52:41;;;;;;;14.15;3.63;;;;;19.20;100095.00;;;;5087604;28;20082;-77
2021/11/05 02:55:11;;;;;;;13.40;3.42;;;;;19.20;100091.00;;;;5087249;28;20047;-77
2021/11/05 02:57:41;;;;;;;14.50;3.90;;;;;19.20;100090.00;;;;5068731;28;20056;-77
2021/11/05 03:00:15;;;;;;;15.30;3.42;;;;;19.20;100070.00;;;;5086948;28;20040;-77
2021/11/05 03:02:45;;;;;;;11.77;3.83;;;;;19.20;100070.00;;;;5086922;28;20052;-78
2021/11/05 03:05:15;;;;;;;15.48;3.85;;;;;19.10;100076.00;;;;5087046;28;20047;-78
2021/11/05 03:07:45;;;;;;;18.63;3.67;;;;;19.10;100075.00;;;;5087426;28;20048;-77
2021/11/05 03:10:16;;;;;;;11.68;3.53;;;;;19.10;100067.00;;;;5086859;28;20056;-78
2021/11/05 03:12:46;;;;;;;13.27;4.32;;;;;19.10;100062.00;;;;5087634;28;20058;-77
2021/11/05 03:15:16;;;;;;;13.93;3.47;;;;;19.10;100073.00;;;;5086785;28;20825;-77
2021/11/05 03:17:46;;;;;;;11.35;3.35;;;;;19.10;100056.00;;;;5086741;28;20403;-77
2021/11/05 03:20:17;;;;;;;17.85;4.32;;;;;19.10;100059.00;;;;5086531;28;20071;-77
2021/11/05 03:22:49;;;;;;;13.68;3.47;;;;;19.00;100060.00;;;;5086823;28;20355;-77
2021/11/05 03:25:19;;;;;;;11.73;3.80;;;;;19.10;100065.00;;;;5086788;28;20503;-77
2021/11/05 03:27:49;;;;;;;9.82;3.10;;;;;19.00;100059.00;;;;5086541;28;20684;-77
2021/11/05 03:30:21;;;;;;;10.02;3.40;;;;;19.00;100045.00;;;;5087095;28;20056;-77
2021/11/05 03:32:51;;;;;;;11.98;3.47;;;;;19.00;100053.00;;;;5086598;28;20040;-77
2021/11/05 03:35:20;;;;;;;10.48;3.40;;;;;19.00;100043.00;;;;5089457;28;20048;-77
2021/11/05 03:37:51;;;;;;;8.77;2.80;;;;;19.00;100044.00;;;;5090869;28;20745;-77
2021/11/05 03:40:21;;;;;;;12.27;3.80;;;;;19.00;100031.00;;;;5090678;28;20090;-77
2021/11/05 03:42:52;;;;;;;10.50;3.20;;;;;19.00;100026.00;;;;5090951;28;20071;-77
2021/11/05 03:45:22;;;;;;;12.93;3.47;;;;;19.00;100023.00;;;;5090769;28;20093;-77
2021/11/05 03:47:51;;;;;;;16.70;3.55;;;;;18.90;100020.00;;;;5090994;28;20044;-77
2021/11/05 03:50:21;;;;;;;10.18;4.55;;;;;18.90;100011.00;;;;5090696;28;20040;-77
2021/11/05 03:52:51;;;;;;;10.95;3.40;;;;;18.90;100012.00;;;;5090864;28;20035;-77
2021/11/05 03:55:20;;;;;;;15.98;3.88;;;;;18.90;100015.00;;;;5090492;28;20051;-77
2021/11/05 03:57:51;;;;;;;13.95;3.63;;;;;18.90;100004.00;;;;5090872;28;20051;-77
2021/11/05 04:00:21;;;;;;;12.32;3.72;;;;;18.80;100009.00;;;;5090509;28;20044;-77
2021/11/05 04:02:51;;;;;;;10.80;3.40;;;;;18.80;100014.00;;;;5090669;28;20056;-77
2021/11/05 04:05:21;;;;;;;8.77;3.42;;;;;18.80;100010.00;;;;5072027;28;20101;-77
2021/11/05 04:07:51;;;;;;;12.82;3.90;;;;;18.80;100003.00;;;;5089776;28;20653;-77
2021/11/05 04:10:21;;;;;;;13.05;3.65;;;;;18.80;100008.00;;;;5090081;28;20441;-78
2021/11/05 04:12:51;;;;;;;18.13;3.50;;;;;18.80;100013.00;;;;5089913;28;20052;-77
2021/11/05 04:15:20;;;;;;;10.80;4.35;;;;;18.70;100022.00;;;;5090030;28;20040;-77
2021/11/05 04:17:50;;;;;;;8.43;3.72;;;;;18.70;100023.00;;;;5089709;28;20048;-77
2021/11/05 04:20:20;;;;;;;10.75;3.30;;;;;18.60;100013.00;;;;5090138;28;20048;-77
2021/11/05 04:22:51;;;;;;;9.82;3.33;;;;;18.60;100005.00;;;;5090189;28;20139;-78
2021/11/05 04:25:21;;;;;;;13.00;4.85;;;;;18.70;100011.00;;;;5089867;28;20048;-79
2021/11/05 04:27:50;;;;;;;8.32;3.42;;;;;18.60;100002.00;;;;5089642;28;20068;-78
2021/11/05 04:30:19;;;;;;;14.60;3.78;;;;;18.60;100004.00;;;;5089475;28;20526;-78
2021/11/05 04:32:49;;;;;;;10.68;4.53;;;;;18.60;100015.00;;;;5071476;28;20051;-78
2021/11/05 04:35:19;;;;;;;9.35;3.75;;;;;18.60;99995.00;;;;5071880;28;20048;-78
2021/11/05 04:37:48;;;;;;;18.80;4.15;;;;;18.60;99992.00;;;;5089883;28;20534;-78
2021/11/05 04:40:18;;;;;;;15.10;4.18;;;;;18.50;100005.00;;;;5089547;28;20067;-78
2021/11/05 04:42:48;;;;;;;13.70;3.42;;;;;18.50;99995.00;;;;5089662;28;20043;-78
2021/11/05 04:45:17;;;;;;;13.10;3.67;;;;;18.50;99991.00;;;;5089882;28;20526;-79
2021/11/05 04:47:47;;;;;;;12.07;3.75;;;;;18.40;100001.00;;;;5054054;28;20052;-79
2021/11/05 04:50:18;;;;;;;12.35;3.80;;;;;18.40;100000.00;;;;5089443;28;20529;-78
2021/11/05 04:52:48;;;;;;;13.10;3.95;;;;;18.40;100005.00;;;;5071557;28;20044;-78
2021/11/05 04:55:19;;;;;;;9.25;3.45;;;;;18.40;100012.00;;;;5089782;28;20040;-79
2021/11/05 04:57:49;;;;;;;;;;;;;18.40;100009.00;;;;5089532;28;20161;-76
2021/11/05 05:00:21;;;;;;;18.90;4.47;;;;;18.40;99983.00;;;;5088869;28;20035;-79
2021/11/05 05:02:52;;;;;;;12.90;4.30;;;;;18.40;99992.00;;;;5089094;28;20149;-76
2021/11/05 05:05:27;;;;;;;13.80;4.00;;;;;18.30;99990.00;;;;5089417;28;20055;-79
2021/11/05 05:07:57;;;;;;;9.68;3.45;;;;;18.30;99991.00;;;;5089473;28;20036;-78
2021/11/05 05:10:28;;;;;;;8.88;3.83;;;;;18.30;99991.00;;;;5088609;28;20131;-79
2021/11/05 05:12:57;;;;;;;;;;;;;18.30;100007.00;;;;5089904;28;20036;-76
2021/11/05 05:15:27;;;;;;;13.07;3.90;;;;;18.20;100001.00;;;;5070437;28;19931;-79
2021/11/05 05:17:56;;;;;;;11.95;3.70;;;;;18.30;100005.00;;;;5088728;28;20059;-79
2021/11/05 05:20:26;;;;;;;16.48;4.70;;;;;18.20;99994.00;;;;5088461;28;20503;-78
2021/11/05 05:22:57;;;;;;;18.60;4.73;;;;;18.20;100008.00;;;;5088755;28;20445;-78
2021/11/05 05:25:27;;;;;;;17.23;4.47;;;;;18.20;99999.00;;;;5089158;28;20094;-78
2021/11/05 05:27:56;;;;;;;202.20;48.20;;;;;18.10;100010.00;;;;5070852;28;20113;-79
2021/11/05 05:30:26;;;;;;;12.70;3.95;;;;;18.10;100006.00;;;;5088991;28;20495;-79
2021/11/05 05:32:55;;;;;;;19.13;4.75;;;;;18.10;100009.00;;;;5088620;28;20071;-76
2021/11/05 05:35:25;;;;;;;22.08;4.40;;;;;18.20;99989.00;;;;5089275;28;20051;-79
2021/11/05 05:37:56;;;;;;;10.65;4.20;;;;;18.20;99986.00;;;;5088187;28;20427;-79
2021/11/05 05:40:26;;;;;;;8.33;3.93;;;;;18.10;99972.00;;;;5087843;28;20532;-79
2021/11/05 05:42:56;;;;;;;10.15;4.43;;;;;18.10;99980.00;;;;5088826;28;20079;-78
2021/11/05 05:45:26;;;;;;;12.98;4.63;;;;;18.10;99980.00;;;;5088545;28;20097;-78
2021/11/05 05:47:56;;;;;;;19.38;4.88;;;;;18.10;99988.00;;;;5088195;28;20139;-76
2021/11/05 05:50:25;;;;;;;13.10;4.50;;;;;18.10;100009.00;;;;5088074;28;20649;-77
2021/11/05 05:52:55;;;;;;;17.38;4.63;;;;;18.10;100013.00;;;;5088412;28;20464;-77
2021/11/05 05:55:25;;;;;;;18.77;4.53;;;;;18.10;99994.00;;;;5088530;28;20097;-77
2021/11/05 05:57:59;;;;;;;15.00;4.47;;;;;18.10;100006.00;;;;5087652;28;20115;-76
2021/11/05 06:00:31;;;;;;;11.77;4.57;;;;;18.00;100003.00;;;;5087707;28;20047;-77
2021/11/05 06:03:01;;;;;;;15.48;4.32;;;;;18.00;99996.00;;;;5087702;28;20052;-77
2021/11/05 06:05:32;;;;;;;13.63;5.00;;;;;18.00;99986.00;;;;5087654;28;20086;-77
2021/11/05 06:08:01;;;;;;;21.15;5.47;;;;;18.00;99971.00;;;;5088372;28;20404;-76
2021/11/05 06:10:31;;;;;;;10.48;3.92;;;;;17.90;99970.00;;;;5087841;28;20054;-76
2021/11/05 06:13:01;;;;;;;13.67;5.17;;;;;18.00;99970.00;;;;5088377;28;20051;-77
2021/11/05 06:15:31;;;;;;;22.10;5.25;;;;;18.00;99972.00;;;;5088378;28;20044;-77
2021/11/05 06:18:01;;;;;;;14.98;4.25;;;;;18.00;99975.00;;;;5087288;28;20486;-77
2021/11/05 06:20:31;;;;;;;25.85;4.43;;;;;17.90;99977.00;;;;5088179;28;20047;-77
2021/11/05 06:23:01;;;;;;;18.20;4.82;;;;;18.00;99976.00;;;;5087932;28;20522;-79
2021/11/05 06:25:31;;;;;;;19.25;4.75;;;;;18.00;99961.00;;;;5087518;28;20127;-79
2021/11/05 06:28:01;;;;;;;17.70;5.13;;;;;17.90;99972.00;;;;5087529;28;20059;-77
2021/11/05 06:30:31;;;;;;;20.90;5.60;;;;;17.90;99992.00;;;;5087417;28;20046;-77
2021/11/05 06:33:02;;;;;;;11.20;5.25;;;;;17.90;99979.00;;;;5087912;28;20492;-77
2021/11/05 06:35:31;;;;;;;16.83;4.78;;;;;17.80;99979.00;;;;5087470;28;20136;-77
2021/11/05 06:38:01;;;;;;;14.05;6.03;;;;;17.90;99992.00;;;;5069841;28;20558;-77
2021/11/05 06:40:30;;;;;;;16.05;4.97;;;;;17.80;99995.00;;;;5086827;28;20527;-77
2021/11/05 06:43:02;;;;;;;20.88;5.50;;;;;17.90;100011.00;;;;5086968;28;20499;-77
2021/11/05 06:45:32;;;;;;;19.88;5.20;;;;;17.80;100018.00;;;;5087268;28;20040;-78
2021/11/05 06:48:01;;;;;;;14.20;4.68;;;;;17.70;100011.00;;;;5069246;28;20635;-77
2021/11/05 06:50:31;;;;;;;13.85;5.15;;;;;17.80;99996.00;;;;5087077;28;20101;-78
2021/11/05 06:53:00;;;;;;;13.95;4.45;;;;;17.80;99995.00;;;;5087271;28;20131;-77
2021/11/05 06:55:30;;;;;;;24.00;5.93;;;;;17.70;99991.00;;;;5087219;28;20048;-77
2021/11/05 06:57:59;;;;;;;17.13;5.72;;;;;17.80;100000.00;;;;5087817;28;20052;-77
2021/11/05 07:00:29;;;;;;;24.17;5.35;;;;;17.80;100010.00;;;;5087197;28;20075;-78
2021/11/05 07:03:00;;;;;;;15.57;4.82;;;;;17.70;100009.00;;;;5087421;28;20102;-77
2021/11/05 07:05:29;;;;;;;18.13;5.82;;;;;17.80;100005.00;;;;5069181;28;20128;-77
2021/11/05 07:07:59;;;;;;;14.55;5.55;;;;;17.80;100005.00;;;;5086416;28;20099;-78
2021/11/05 07:10:30;;;;;;;13.55;5.28;;;;;17.80;100009.00;;;;5086016;28;20117;-77
2021/11/05 07:13:02;;;;;;;14.52;5.72;;;;;17.80;100006.00;;;;5087029;28;20043;-77
2021/11/05 07:15:32;;;;;;;23.10;5.78;;;;;17.70;99998.00;;;;5086919;28;20526;-77
2021/11/05 07:18:03;;;;;;;12.73;6.20;;;;;17.80;100006.00;;;;5086808;28;20048;-77
2021/11/05 07:20:35;;;;;;;12.50;5.32;;;;;17.70;100007.00;;;;5068163;28;20048;-77
2021/11/05 07:23:06;;;;;;;13.48;5.03;;;;;17.60;100010.00;;;;5087307;28;20048;-77
2021/11/05 07:25:35;;;;;;;10.65;5.22;;;;;17.60;100020.00;;;;5086460;28;20052;-77
2021/11/05 07:28:05;;;;;;;11.85;5.47;;;;;17.50;100005.00;;;;5086809;28;20130;-77
2021/11/05 07:30:36;;;;;;;14.90;5.93;;;;;17.40;100009.00;;;;5086341;28;20044;-77
2021/11/05 07:33:06;;;;;;;;;;;;;17.40;100013.00;;;;5087494;28;20117;-77
2021/11/05 07:35:35;;;;;;;19.98;5.65;;;;;17.40;99984.00;;;;5086973;28;20570;-77
2021/11/05 07:38:05;;;;;;;21.40;5.68;;;;;17.30;99983.00;;;;5086386;28;20036;-77
2021/11/05 07:40:35;;;;;;;19.48;5.80;;;;;17.40;99985.00;;;;5086543;28;20044;-77
2021/11/05 07:43:05;;;;;;;14.07;5.65;;;;;17.40;99975.00;;;;5086743;28;20052;-77
2021/11/05 07:45:35;;;;;;;13.15;5.03;;;;;17.50;99970.00;;;;5086550;28;20044;-77
2021/11/05 07:48:05;;;;;;;14.85;5.05;;;;;17.40;99985.00;;;;5086658;28;20074;-77
2021/11/05 07:50:34;;;;;;;17.10;5.13;;;;;17.40;99986.00;;;;5086463;28;20415;-78
2021/11/05 07:53:05;;;;;;;13.70;5.00;;;;;17.50;99992.00;;;;5086560;28;20048;-77
2021/11/05 07:55:35;;;;;;;10.55;5.03;;;;;17.50;99992.00;;;;5086219;28;20048;-77
2021/11/05 07:58:05;;;;;;;16.25;5.03;;;;;17.40;99982.00;;;;5086516;28;20435;-77
2021/11/05 08:00:35;;;;;;;10.93;4.68;;;;;17.30;99983.00;;;;5085865;28;20047;-77
2021/11/05 08:03:09;;;;;;;9.10;4.40;;;;;17.30;99988.00;;;;5086738;28;20432;-77
2021/11/05 08:05:39;;;;;;;9.45;4.50;;;;;17.20;99996.00;;;;5086329;28;20048;-77
2021/11/05 08:08:09;;;;;;;9.35;4.13;;;;;17.20;100017.00;;;;5086166;28;20047;-77
2021/11/05 08:10:38;;;;;;;8.23;4.68;;;;;17.20;100018.00;;;;5068102;28;20087;-77
2021/11/05 08:13:08;;;;;;;13.82;3.80;;;;;17.10;100025.00;;;;5086417;28;20051;-77
2021/11/05 08:15:38;;;;;;;15.70;4.40;;;;;17.20;100022.00;;;;5086410;28;20499;-77
2021/11/05 08:18:08;;;;;;;10.65;3.80;;;;;17.10;100035.00;;;;5085802;28;20048;-77
2021/11/05 08:20:41;;;;;;;15.30;5.03;;;;;17.20;100027.00;;;;5086894;28;20118;-77
2021/11/05 08:23:11;;;;;;;9.90;3.40;;;;;17.20;100044.00;;;;5090208;28;20071;-77
2021/11/05 08:25:48;;;;;;;7.10;3.05;;;;;17.10;100020.00;;;;5090667;28;20054;-77
2021/11/05 08:28:20;;;;;;;8.45;3.85;;;;;17.10;100041.00;;;;5090030;28;20093;-77
2021/11/05 08:30:52;;;;;;;6.57;3.58;;;;;17.00;100051.00;;;;5090450;28;20434;-77
2021/11/05 08:33:22;;;;;;;7.85;3.92;;;;;17.10;100038.00;;;;5089959;28;20580;-76
2021/11/05 08:35:52;;;;;;;9.52;3.47;;;;;17.00;100042.00;;;;5089984;28;20043;-76
2021/11/05 08:38:24;;;;;;;13.35;3.80;;;;;17.10;100046.00;;;;5089722;28;20048;-77
2021/11/05 08:40:57;;;;;;;14.00;4.30;;;;;17.20;100033.00;;;;5089775;28;20130;-77
2021/11/05 08:43:31;;;;;;;12.60;3.67;;;;;17.10;100061.00;;;;5089787;28;20464;-77
2021/11/05 08:46:06;;;;;;;9.00;3.78;;;;;17.10;100056.00;;;;5089117;28;20048;-77
2021/11/05 08:48:58;;;;;;;10.57;4.20;;;;;17.10;100068.00;;;;5089379;28;20036;-77
2021/11/05 08:51:30;;;;;;;7.82;3.65;;;;;17.10;100058.00;;;;5090307;28;20040;-77
2021/11/05 08:54:00;;;;;;;10.25;4.00;;;;;17.20;100070.00;;;;5089844;28;20093;-76
2021/11/05 08:56:30;;;;;;;12.95;4.55;;;;;17.20;100069.00;;;;5071058;28;20851;-77
2021/11/05 08:59:00;;;;;;;10.23;3.50;;;;;17.20;100091.00;;;;5088838;28;20139;-77
2021/11/05 09:01:31;;;;;;;16.75;4.63;;;;;17.30;100082.00;;;;5088980;28;20044;-77
2021/11/05 09:04:01;;;;;;;17.83;4.70;;;;;17.40;100088.00;;;;5089254;28;20093;-77
2021/11/05 09:06:31;;;;;;;17.10;4.38;;;;;17.40;100099.00;;;;5089183;28;20449;-76
2021/11/05 09:09:00;;;;;;;14.43;4.70;;;;;17.50;100107.00;;;;5089347;28;20457;-77
2021/11/05 09:11:31;;;;;;;12.93;4.25;;;;;17.50;100110.00;;;;5089097;28;20071;-77
2021/11/05 09:14:01;;;;;;;17.88;4.95;;;;;17.60;100127.00;;;;5071431;28;20035;-78
2021/11/05 09:16:31;;;;;;;12.38;4.40;;;;;17.70;100127.00;;;;5089242;28;20094;-77
2021/11/05 09:19:03;;;;;;;19.42;4.47;;;;;17.70;100138.00;;;;5088865;28;20052;-77
2021/11/05 09:21:34;;;;;;;13.32;4.50;;;;;17.80;100132.00;;;;5088199;28;20055;-77
2021/11/05 09:24:05;;;;;;;10.82;4.32;;;;;17.90;100134.00;;;;5088594;28;20070;-77
2021/11/05 09:26:35;;;;;;;12.75;4.75;;;;;18.00;100137.00;;;;5088296;28;20541;-77
2021/11/05 09:29:06;;;;;;;19.88;4.95;;;;;18.20;100139.00;;;;5087402;28;20067;-78
2021/11/05 09:31:36;;;;;;;10.70;5.75;;;;;18.30;100146.00;;;;5087349;28;20093;-77
2021/11/05 09:34:07;;;;;;;17.08;6.38;;;;;18.50;100138.00;;;;5087972;28;20535;-78
2021/11/05 09:36:37;;;;;;;15.48;5.90;;;;;18.60;100150.00;;;;5088590;28;20094;-76
2021/11/05 09:39:06;;;;;;;11.07;5.15;;;;;18.70;100157.00;;;;5089280;28;20499;-77
2021/11/05 09:41:36;;;;;;;16.08;5.93;;;;;19.00;100157.00;;;;5088926;28;20048;-77
2021/11/05 09:44:53;;;;;;;11.65;4.90;;;;;19.10;100166.00;;;;5087247;28;20044;-76
2021/11/05 09:47:23;;;;;;;21.15;6.43;;;;;19.30;100157.00;;;;5088255;28;20414;-77
2021/11/05 09:49:53;;;;;;;22.85;6.30;;;;;19.50;100154.00;;;;5088146;28;20040;-77
2021/11/05 09:52:22;;;;;;;25.48;7.97;;;;;20.00;100149.00;;;;5087658;28;20531;-77
2021/11/05 09:54:53;;;;;;;14.15;6.40;;;;;20.10;100152.00;;;;5088084;28;20707;-76
2021/11/05 09:57:23;;;;;;;14.00;6.50;;;;;20.30;100147.00;;;;5088452;28;20090;-77
2021/11/05 09:59:56;;;;;;;17.52;6.68;;;;;20.40;100153.00;;;;5088331;28;20130;-78
2021/11/05 10:02:27;;;;;;;27.85;9.27;;;;;20.70;100144.00;;;;5088119;28;20047;-77
2021/11/05 10:04:58;;;;;;;30.23;8.93;;;;;23.50;99991.00;;;;5087944;28;20175;-77
2021/11/05 10:07:28;;;;;;;17.25;6.38;;;;;23.30;100059.00;;;;5087635;28;20051;-77
2021/11/05 10:09:59;;;;;;;17.40;5.77;;;;;25.00;99954.00;;;;5087795;28;20058;-77
2021/11/05 10:12:30;;;;;;;13.48;5.25;;;;;26.80;99980.00;;;;5087651;28;20109;-77
2021/11/05 10:15:02;;;;;;;11.20;4.90;;;;;24.80;100106.00;;;;5087819;28;20469;-76
2021/11/05 10:17:33;;;;;;;14.23;5.50;;;;;27.00;99947.00;;;;5069514;28;20076;-76
2021/11/05 10:20:09;;;;;;;18.10;5.78;;;;;29.20;99938.00;;;;5086691;28;20503;-78
2021/11/05 10:22:47;;;;;;;25.25;5.15;;;;;29.50;99951.00;;;;5086640;28;20558;-78
2021/11/05 10:25:23;;;;;;;17.23;4.78;;;;;25.20;100154.00;;;;5086322;28;20043;-77
2021/11/05 10:27:59;;;;;;;8.13;4.55;;;;;24.80;100103.00;;;;5069571;28;20133;-78
2021/11/05 10:30:31;;;;;;;12.23;5.13;;;;;24.10;100135.00;;;;5087730;28;20128;-77
2021/11/05 10:33:02;;;;;;;27.65;7.40;;;;;23.40;100174.00;;;;5087777;28;20549;-77
2021/11/05 10:35:34;;;;;;;20.98;9.90;;;;;22.80;100101.00;;;;5069199;28;20048;-78
2021/11/05 10:38:06;;;;;;;21.52;9.95;;;;;23.70;100123.00;;;;5087553;28;20048;-77
2021/11/05 10:40:41;;;;;;;22.60;11.25;;;;;27.10;99944.00;;;;5087002;28;20072;-77
2021/11/05 10:43:29;;;;;;;20.13;8.75;;;;;30.30;99934.00;;;;5087168;28;20044;-77
2021/11/05 10:46:00;;;;;;;12.80;6.25;;;;;28.70;100038.00;;;;5087601;28;20514;-78
2021/11/05 10:48:34;;;;;;;17.52;7.18;;;;;27.10;100136.00;;;;5087462;28;20043;-78
2021/11/05 10:51:07;;;;;;;14.85;6.70;;;;;24.80;100157.00;;;;5068397;28;20048;-78
2021/11/05 10:53:42;;;;;;;11.70;5.63;;;;;27.20;100034.00;;;;5087484;28;20073;-77
2021/11/05 10:56:19;;;;;;;13.48;5.72;;;;;27.20;100033.00;;;;5086927;28;20047;-77
2021/11/05 10:59:02;;;;;;;11.70;5.68;;;;;30.30;99947.00;;;;5087405;28;20073;-78
2021/11/05 11:01:35;;;;;;;13.70;6.05;;;;;30.90;99948.00;;;;5086358;28;20043;-77
2021/11/05 11:04:11;;;;;;;11.18;5.00;;;;;31.40;99934.00;;;;5087060;28;20039;-79
2021/11/05 11:06:46;;;;;;;15.95;5.30;;;;;31.30;99942.00;;;;5087151;28;20040;-77
2021/11/05 11:09:19;;;;;;;9.82;5.10;;;;;31.20;99941.00;;;;5087697;28;20197;-78
2021/11/05 11:11:53;;;;;;;14.77;5.18;;;;;32.10;99931.00;;;;5086632;28;20036;-77
2021/11/05 11:14:30;;;;;;;8.70;4.57;;;;;32.60;99933.00;;;;5086680;28;20052;-78
2021/11/05 11:17:01;;;;;;;11.77;4.22;;;;;32.70;99932.00;;;;5086709;28;20048;-77
2021/11/05 11:19:36;;;;;;;8.80;3.88;;;;;32.90;99935.00;;;;5086735;28;20127;-77
2021/11/05 11:22:10;;;;;;;9.60;4.18;;;;;32.90;99932.00;;;;5086722;28;20059;-76
2021/11/05 11:24:42;;;;;;;8.90;4.90;;;;;32.30;99923.00;;;;5068264;28;20067;-77
2021/11/05 11:27:16;;;;;;;9.00;4.10;;;;;32.20;99927.00;;;;5086761;28;20075;-78
2021/11/05 11:29:56;;;;;;;19.27;5.70;;;;;31.30;99929.00;;;;5086621;28;20040;-79
2021/11/05 11:32:29;;;;;;;9.45;3.65;;;;;29.50;99940.00;;;;5086407;28;20040;-80
2021/11/05 11:34:59;;;;;;;13.77;4.50;;;;;28.70;99938.00;;;;5086649;28;20046;-80
2021/11/05 11:37:30;;;;;;;;;;;;;29.70;99983.00;;;;5087187;28;20119;-78
2021/11/05 11:39:59;;;;;;;14.73;4.15;;;;;28.80;100082.00;;;;5068246;28;19924;-79
2021/11/05 11:42:29;;;;;;;10.63;3.92;;;;;28.10;100106.00;;;;5086198;28;20097;-78
2021/11/05 11:44:59;;;;;;;8.07;3.77;;;;;27.20;100120.00;;;;5086516;28;20060;-78
2021/11/05 11:47:42;;;;;;;10.27;4.07;;;;;26.70;100115.00;;;;5087021;28;20039;-79
2021/11/05 11:50:26;;;;;;;18.85;4.85;;;;;27.60;100119.00;;;;5086867;28;20768;-79
2021/11/05 11:53:07;;;;;;;10.82;4.05;;;;;28.10;100120.00;;;;5086554;28;20128;-78
2021/11/05 11:55:40;;;;;;;8.90;3.30;;;;;28.60;100111.00;;;;5087896;28;20040;-78
2021/11/05 11:58:20;;;;;;;7.75;3.38;;;;;29.20;100105.00;;;;5090588;28;20036;-79
2021/11/05 12:00:51;;;;;;;16.90;3.83;;;;;29.00;100106.00;;;;5090360;28;20624;-80
2021/11/05 12:03:31;;;;;;;10.90;3.95;;;;;28.40;100109.00;;;;5090256;28;20040;-78
2021/11/05 12:06:02;;;;;;;13.10;3.47;;;;;27.80;100106.00;;;;5089855;28;20423;-78
2021/11/05 12:08:44;;;;;;;10.10;4.10;;;;;28.10;100100.00;;;;5071678;28;20054;-79
2021/11/05 12:11:16;;;;;;;8.23;3.50;;;;;27.50;100101.00;;;;5090480;28;20048;-79
2021/11/05 12:13:51;;;;;;;8.02;3.25;;;;;27.80;100097.00;;;;5090586;28;20051;-80
2021/11/05 12:16:25;;;;;;;18.08;5.25;;;;;28.10;100088.00;;;;5089834;28;20072;-78
2021/11/05 12:18:58;;;;;;;15.30;3.50;;;;;29.10;100088.00;;;;5090600;28;20113;-78
2021/11/05 12:21:34;;;;;;;9.57;3.03;;;;;29.30;100081.00;;;;5090375;28;20090;-80
2021/11/05 12:24:14;;;;;;;14.35;6.55;;;;;29.30;100105.00;;;;5071896;28;20105;-81